sensor_id;sensor_type;location;lat;lon;timestamp;pressure;altitude;pressure_sealevel;temperature;humidity
64967;BME280;51710;38.732;-121.358;2022-12-05T00:01:33;101482.94;;;12.54;79.27
64967;BME280;51710;38.732;-121.358;2022-12-05T00:04:02;101487.66;;;12.42;79.46
64967;BME280;51710;38.732;-121.358;2022-12-05T00:06:30;101488.16;;;12.28;79.97
64967;BME280;51710;38.732;-121.358;2022-12-05T00:08:57;101501.44;;;12.20;80.18
64967;BME280;51710;38.732;-121.358;2022-12-05T00:11:30;101504.84;;;12.12;79.92
64967;BME280;51710;38.732;-121.358;2022-12-05T00:13:58;101499.56;;;12.03;80.11
64967;BME280;51710;38.732;-121.358;2022-12-05T00:16:27;101507.44;;;11.95;80.62
64967;BME280;51710;38.732;-121.358;2022-12-05T00:18:54;101502.56;;;11.90;80.82
64967;BME280;51710;38.732;-121.358;2022-12-05T00:21:23;101491.31;;;11.87;81.05
64967;BME280;51710;38.732;-121.358;2022-12-05T00:23:50;101496.94;;;11.84;81.14
64967;BME280;51710;38.732;-121.358;2022-12-05T00:26:18;101511.44;;;11.81;81.03
64967;BME280;51710;38.732;-121.358;2022-12-05T00:28:45;101515.91;;;11.81;81.38
64967;BME280;51710;38.732;-121.358;2022-12-05T00:31:15;101514.25;;;11.80;81.15
64967;BME280;51710;38.732;-121.358;2022-12-05T00:33:42;101522.56;;;11.77;80.58
64967;BME280;51710;38.732;-121.358;2022-12-05T00:36:14;101511.19;;;11.75;80.68
64967;BME280;51710;38.732;-121.358;2022-12-05T00:38:41;101512.28;;;11.72;80.58
64967;BME280;51710;38.732;-121.358;2022-12-05T00:41:14;101516.13;;;11.70;80.54
64967;BME280;51710;38.732;-121.358;2022-12-05T00:43:44;101520.16;;;11.74;81.40
64967;BME280;51710;38.732;-121.358;2022-12-05T00:46:15;101519.19;;;11.75;80.94
64967;BME280;51710;38.732;-121.358;2022-12-05T00:48:45;101521.84;;;11.75;80.67
64967;BME280;51710;38.732;-121.358;2022-12-05T00:51:16;101522.13;;;11.72;80.68
64967;BME280;51710;38.732;-121.358;2022-12-05T00:53:44;101532.13;;;11.70;80.70
64967;BME280;51710;38.732;-121.358;2022-12-05T00:56:16;101520.75;;;11.68;80.79
64967;BME280;51710;38.732;-121.358;2022-12-05T00:58:43;101512.03;;;11.66;81.13
64967;BME280;51710;38.732;-121.358;2022-12-05T01:01:19;101518.34;;;11.65;81.17
64967;BME280;51710;38.732;-121.358;2022-12-05T01:03:46;101510.59;;;11.62;80.66
64967;BME280;51710;38.732;-121.358;2022-12-05T01:06:15;101513.41;;;11.60;80.90
64967;BME280;51710;38.732;-121.358;2022-12-05T01:08:42;101521.56;;;11.59;80.86
64967;BME280;51710;38.732;-121.358;2022-12-05T01:11:10;101517.91;;;11.60;81.11
64967;BME280;51710;38.732;-121.358;2022-12-05T01:13:36;101509.19;;;11.58;81.16
64967;BME280;51710;38.732;-121.358;2022-12-05T01:16:03;101511.19;;;11.56;81.10
64967;BME280;51710;38.732;-121.358;2022-12-05T01:18:29;101521.97;;;11.54;81.14
64967;BME280;51710;38.732;-121.358;2022-12-05T01:20:56;101523.84;;;11.54;80.96
64967;BME280;51710;38.732;-121.358;2022-12-05T01:23:25;101530.56;;;11.48;80.96
64967;BME280;51710;38.732;-121.358;2022-12-05T01:25:52;101528.63;;;11.31;81.31
64967;BME280;51710;38.732;-121.358;2022-12-05T01:28:18;101556.69;;;11.16;81.62
64967;BME280;51710;38.732;-121.358;2022-12-05T01:30:47;101573.25;;;11.00;82.61
64967;BME280;51710;38.732;-121.358;2022-12-05T01:33:14;101563.56;;;10.90;83.08
64967;BME280;51710;38.732;-121.358;2022-12-05T01:35:43;101553.31;;;10.85;83.34
64967;BME280;51710;38.732;-121.358;2022-12-05T01:38:11;101556.13;;;10.84;83.93
64967;BME280;51710;38.732;-121.358;2022-12-05T01:40:40;101546.56;;;10.81;84.21
64967;BME280;51710;38.732;-121.358;2022-12-05T01:43:14;101546.56;;;10.81;84.49
64967;BME280;51710;38.732;-121.358;2022-12-05T01:45:43;101538.34;;;10.84;84.62
64967;BME280;51710;38.732;-121.358;2022-12-05T01:48:17;101537.34;;;10.85;84.77
64967;BME280;51710;38.732;-121.358;2022-12-05T01:50:46;101539.00;;;10.86;85.02
64967;BME280;51710;38.732;-121.358;2022-12-05T01:53:15;101529.75;;;10.90;84.87
64967;BME280;51710;38.732;-121.358;2022-12-05T01:55:41;101525.84;;;10.94;85.13
64967;BME280;51710;38.732;-121.358;2022-12-05T01:58:09;101521.34;;;10.95;84.99
64967;BME280;51710;38.732;-121.358;2022-12-05T02:00:36;101520.53;;;10.94;84.87
64967;BME280;51710;38.732;-121.358;2022-12-05T02:03:07;101521.78;;;10.90;84.73
64967;BME280;51710;38.732;-121.358;2022-12-05T02:05:35;101523.03;;;10.86;84.80
64967;BME280;51710;38.732;-121.358;2022-12-05T02:08:08;101534.53;;;10.77;85.32
64967;BME280;51710;38.732;-121.358;2022-12-05T02:10:43;101532.28;;;10.73;84.69
64967;BME280;51710;38.732;-121.358;2022-12-05T02:21:42;101513.06;;;10.60;85.30
64967;BME280;51710;38.732;-121.358;2022-12-05T02:24:38;101507.44;;;10.63;85.48
64967;BME280;51710;38.732;-121.358;2022-12-05T02:27:26;101506.31;;;10.65;85.75
64967;BME280;51710;38.732;-121.358;2022-12-05T02:30:16;101495.56;;;10.67;85.93
64967;BME280;51710;38.732;-121.358;2022-12-05T02:38:09;101494.13;;;10.72;85.47
64967;BME280;51710;38.732;-121.358;2022-12-05T02:43:56;101492.47;;;10.81;85.21
64967;BME280;51710;38.732;-121.358;2022-12-05T02:46:28;101491.19;;;10.85;85.14
64967;BME280;51710;38.732;-121.358;2022-12-05T02:49:02;101498.06;;;10.87;85.10
64967;BME280;51710;38.732;-121.358;2022-12-05T02:51:37;101489.09;;;10.88;85.09
64967;BME280;51710;38.732;-121.358;2022-12-05T02:54:09;101481.66;;;10.92;84.79
64967;BME280;51710;38.732;-121.358;2022-12-05T02:56:38;101486.56;;;10.87;84.81
64967;BME280;51710;38.732;-121.358;2022-12-05T02:59:05;101485.16;;;10.83;84.53
64967;BME280;51710;38.732;-121.358;2022-12-05T03:01:32;101484.59;;;10.79;85.09
64967;BME280;51710;38.732;-121.358;2022-12-05T03:04:01;101483.91;;;10.77;85.06
64967;BME280;51710;38.732;-121.358;2022-12-05T03:06:30;101477.88;;;10.75;84.76
64967;BME280;51710;38.732;-121.358;2022-12-05T03:09:01;101482.38;;;10.75;84.86
64967;BME280;51710;38.732;-121.358;2022-12-05T03:11:38;101482.34;;;10.65;84.85
64967;BME280;51710;38.732;-121.358;2022-12-05T03:14:12;101486.28;;;10.61;85.42
64967;BME280;51710;38.732;-121.358;2022-12-05T03:16:43;101473.94;;;10.60;85.58
64967;BME280;51710;38.732;-121.358;2022-12-05T03:19:19;101473.78;;;10.62;85.95
64967;BME280;51710;38.732;-121.358;2022-12-05T03:22:14;101479.00;;;10.63;86.03
64967;BME280;51710;38.732;-121.358;2022-12-05T03:24:43;101484.34;;;10.63;85.80
64967;BME280;51710;38.732;-121.358;2022-12-05T03:27:42;101481.91;;;10.60;85.53
64967;BME280;51710;38.732;-121.358;2022-12-05T03:30:17;101475.91;;;10.58;85.50
64967;BME280;51710;38.732;-121.358;2022-12-05T03:33:14;101490.19;;;10.57;85.80
64967;BME280;51710;38.732;-121.358;2022-12-05T03:36:10;101481.78;;;10.52;85.72
64967;BME280;51710;38.732;-121.358;2022-12-05T03:38:46;101479.66;;;10.46;84.98
64967;BME280;51710;38.732;-121.358;2022-12-05T03:41:24;101479.38;;;10.40;85.38
64967;BME280;51710;38.732;-121.358;2022-12-05T03:44:05;101489.47;;;10.36;85.54
64967;BME280;51710;38.732;-121.358;2022-12-05T03:46:45;101484.13;;;10.36;85.69
64967;BME280;51710;38.732;-121.358;2022-12-05T03:49:33;101482.59;;;10.34;85.52
64967;BME280;51710;38.732;-121.358;2022-12-05T03:52:14;101481.75;;;10.33;86.16
64967;BME280;51710;38.732;-121.358;2022-12-05T03:54:52;101478.53;;;10.30;85.87
64967;BME280;51710;38.732;-121.358;2022-12-05T03:58:26;101478.66;;;10.28;86.23
64967;BME280;51710;38.732;-121.358;2022-12-05T04:00:22;101490.97;;;10.29;86.05
64967;BME280;51710;38.732;-121.358;2022-12-05T04:03:30;101487.34;;;10.30;86.48
64967;BME280;51710;38.732;-121.358;2022-12-05T04:06:30;101482.03;;;10.30;86.30
64967;BME280;51710;38.732;-121.358;2022-12-05T04:09:27;101491.53;;;10.33;85.69
64967;BME280;51710;38.732;-121.358;2022-12-05T04:12:01;101480.19;;;10.31;86.01
64967;BME280;51710;38.732;-121.358;2022-12-05T04:14:39;101493.06;;;10.26;85.83
64967;BME280;51710;38.732;-121.358;2022-12-05T04:17:16;101491.78;;;10.20;85.97
64967;BME280;51710;38.732;-121.358;2022-12-05T04:22:37;101490.13;;;10.19;85.97
64967;BME280;51710;38.732;-121.358;2022-12-05T04:25:06;101488.16;;;10.21;86.53
64967;BME280;51710;38.732;-121.358;2022-12-05T04:33:35;101487.03;;;10.23;86.19
64967;BME280;51710;38.732;-121.358;2022-12-05T04:36:18;101482.84;;;10.21;86.22
64967;BME280;51710;38.732;-121.358;2022-12-05T04:38:52;101485.50;;;10.21;86.14
64967;BME280;51710;38.732;-121.358;2022-12-05T04:41:25;101478.38;;;10.22;86.05
64967;BME280;51710;38.732;-121.358;2022-12-05T04:43:55;101475.56;;;10.23;85.68
64967;BME280;51710;38.732;-121.358;2022-12-05T04:46:24;101475.56;;;10.23;86.31
64967;BME280;51710;38.732;-121.358;2022-12-05T04:48:56;101473.88;;;10.22;86.28
64967;BME280;51710;38.732;-121.358;2022-12-05T04:51:26;101485.22;;;10.24;85.87
64967;BME280;51710;38.732;-121.358;2022-12-05T04:54:07;101477.25;;;10.24;85.88
64967;BME280;51710;38.732;-121.358;2022-12-05T04:56:37;101485.09;;;10.26;86.21
64967;BME280;51710;38.732;-121.358;2022-12-05T04:59:03;101479.63;;;10.27;86.01
64967;BME280;51710;38.732;-121.358;2022-12-05T05:06:45;101474.44;;;10.26;85.92
64967;BME280;51710;38.732;-121.358;2022-12-05T05:09:12;101478.94;;;10.25;85.67
64967;BME280;51710;38.732;-121.358;2022-12-05T05:11:38;101474.72;;;10.23;85.59
64967;BME280;51710;38.732;-121.358;2022-12-05T05:14:05;101472.19;;;10.21;85.75
64967;BME280;51710;38.732;-121.358;2022-12-05T05:16:34;101473.06;;;10.22;85.58
64967;BME280;51710;38.732;-121.358;2022-12-05T05:19:02;101463.94;;;10.24;85.71
64967;BME280;51710;38.732;-121.358;2022-12-05T05:21:31;101475.28;;;10.26;85.95
64967;BME280;51710;38.732;-121.358;2022-12-05T05:23:58;101477.94;;;10.26;86.00
64967;BME280;51710;38.732;-121.358;2022-12-05T05:26:26;101467.16;;;10.28;85.76
64967;BME280;51710;38.732;-121.358;2022-12-05T05:28:53;101474.28;;;10.27;85.61
64967;BME280;51710;38.732;-121.358;2022-12-05T05:31:20;101464.78;;;10.25;85.53
64967;BME280;51710;38.732;-121.358;2022-12-05T05:33:54;101466.88;;;10.21;85.42
64967;BME280;51710;38.732;-121.358;2022-12-05T05:36:22;101457.09;;;10.22;85.79
64967;BME280;51710;38.732;-121.358;2022-12-05T05:38:51;101469.69;;;10.19;85.99
64967;BME280;51710;38.732;-121.358;2022-12-05T05:41:20;101462.50;;;10.20;86.11
64967;BME280;51710;38.732;-121.358;2022-12-05T05:43:50;101464.22;;;10.21;85.59
64967;BME280;51710;38.732;-121.358;2022-12-05T05:46:18;101453.72;;;10.19;85.90
64967;BME280;51710;38.732;-121.358;2022-12-05T05:48:46;101451.88;;;10.20;85.74
64967;BME280;51710;38.732;-121.358;2022-12-05T05:51:14;101436.88;;;10.19;85.43
64967;BME280;51710;38.732;-121.358;2022-12-05T05:53:41;101442.22;;;10.19;85.87
64967;BME280;51710;38.732;-121.358;2022-12-05T05:56:12;101444.16;;;10.17;85.55
64967;BME280;51710;38.732;-121.358;2022-12-05T05:58:39;101460.13;;;10.17;85.82
64967;BME280;51710;38.732;-121.358;2022-12-05T06:01:08;101452.16;;;10.17;85.57
64967;BME280;51710;38.732;-121.358;2022-12-05T06:03:35;101452.16;;;10.17;85.91
64967;BME280;51710;38.732;-121.358;2022-12-05T06:06:05;101456.50;;;10.18;85.40
64967;BME280;51710;38.732;-121.358;2022-12-05T06:08:34;101464.50;;;10.18;85.51
64967;BME280;51710;38.732;-121.358;2022-12-05T06:11:26;101463.06;;;10.14;85.28
64967;BME280;51710;38.732;-121.358;2022-12-05T06:13:58;101465.75;;;10.14;85.70
64967;BME280;51710;38.732;-121.358;2022-12-05T06:16:29;101469.34;;;10.13;85.54
64967;BME280;51710;38.732;-121.358;2022-12-05T06:18:56;101455.22;;;10.12;85.59
64967;BME280;51710;38.732;-121.358;2022-12-05T06:21:26;101457.03;;;10.12;84.95
64967;BME280;51710;38.732;-121.358;2022-12-05T06:23:53;101460.69;;;10.11;85.43
64967;BME280;51710;38.732;-121.358;2022-12-05T06:26:21;101460.69;;;10.11;85.56
64967;BME280;51710;38.732;-121.358;2022-12-05T06:28:48;101461.50;;;10.11;85.58
64967;BME280;51710;38.732;-121.358;2022-12-05T06:31:17;101463.22;;;10.12;85.67
64967;BME280;51710;38.732;-121.358;2022-12-05T06:33:45;101455.22;;;10.12;85.10
64967;BME280;51710;38.732;-121.358;2022-12-05T06:36:16;101454.25;;;10.13;85.47
64967;BME280;51710;38.732;-121.358;2022-12-05T06:38:43;101456.34;;;10.10;85.44
64967;BME280;51710;38.732;-121.358;2022-12-05T06:41:13;101461.66;;;10.10;85.08
64967;BME280;51710;38.732;-121.358;2022-12-05T06:43:40;101454.78;;;10.07;85.03
64967;BME280;51710;38.732;-121.358;2022-12-05T06:46:11;101457.81;;;10.03;84.74
64967;BME280;51710;38.732;-121.358;2022-12-05T06:48:38;101454.72;;;9.98;84.86
64967;BME280;51710;38.732;-121.358;2022-12-05T06:51:09;101448.53;;;9.88;84.75
64967;BME280;51710;38.732;-121.358;2022-12-05T06:53:36;101440.94;;;9.83;84.98
64967;BME280;51710;38.732;-121.358;2022-12-05T06:56:04;101438.69;;;9.79;84.85
64967;BME280;51710;38.732;-121.358;2022-12-05T06:58:33;101434.75;;;9.73;84.94
64967;BME280;51710;38.732;-121.358;2022-12-05T07:00:59;101439.50;;;9.70;85.51
64967;BME280;51710;38.732;-121.358;2022-12-05T07:03:44;101439.50;;;9.70;85.70
64967;BME280;51710;38.732;-121.358;2022-12-05T07:06:14;101443.97;;;9.69;85.17
64967;BME280;51710;38.732;-121.358;2022-12-05T07:08:41;101443.44;;;9.66;85.63
64967;BME280;51710;38.732;-121.358;2022-12-05T07:11:08;101447.31;;;9.62;85.15
64967;BME280;51710;38.732;-121.358;2022-12-05T07:13:34;101434.16;;;9.60;85.73
64967;BME280;51710;38.732;-121.358;2022-12-05T07:16:01;101433.59;;;9.57;85.45
64967;BME280;51710;38.732;-121.358;2022-12-05T07:18:27;101439.16;;;9.54;85.85
64967;BME280;51710;38.732;-121.358;2022-12-05T07:20:59;101431.00;;;9.46;85.93
64967;BME280;51710;38.732;-121.358;2022-12-05T07:23:26;101432.50;;;9.39;85.54
64967;BME280;51710;38.732;-121.358;2022-12-05T07:25:53;101430.13;;;9.36;85.70
64967;BME280;51710;38.732;-121.358;2022-12-05T07:28:20;101425.91;;;9.33;86.10
64967;BME280;51710;38.732;-121.358;2022-12-05T07:30:46;101421.72;;;9.31;86.22
64967;BME280;51710;38.732;-121.358;2022-12-05T07:33:13;101423.66;;;9.29;85.87
64967;BME280;51710;38.732;-121.358;2022-12-05T07:35:39;101416.91;;;9.25;86.06
64967;BME280;51710;38.732;-121.358;2022-12-05T07:38:06;101418.03;;;9.22;86.03
64967;BME280;51710;38.732;-121.358;2022-12-05T07:40:32;101415.75;;;9.18;86.42
64967;BME280;51710;38.732;-121.358;2022-12-05T07:42:58;101415.88;;;9.16;86.28
64967;BME280;51710;38.732;-121.358;2022-12-05T07:45:25;101427.09;;;9.20;85.99
64967;BME280;51710;38.732;-121.358;2022-12-05T07:47:51;101424.44;;;9.20;86.51
64967;BME280;51710;38.732;-121.358;2022-12-05T07:50:18;101422.50;;;9.22;86.82
64967;BME280;51710;38.732;-121.358;2022-12-05T07:52:44;101426.44;;;9.27;86.54
64967;BME280;51710;38.732;-121.358;2022-12-05T07:55:11;101418.34;;;9.29;86.32
64967;BME280;51710;38.732;-121.358;2022-12-05T07:57:37;101413.88;;;9.29;86.72
64967;BME280;51710;38.732;-121.358;2022-12-05T08:00:04;101419.75;;;9.33;86.59
64967;BME280;51710;38.732;-121.358;2022-12-05T08:02:34;101409.72;;;9.36;86.87
64967;BME280;51710;38.732;-121.358;2022-12-05T08:05:01;101408.59;;;9.39;86.78
64967;BME280;51710;38.732;-121.358;2022-12-05T08:07:27;101415.31;;;9.43;86.48
64967;BME280;51710;38.732;-121.358;2022-12-05T08:09:53;101410.00;;;9.43;86.75
64967;BME280;51710;38.732;-121.358;2022-12-05T08:12:20;101396.59;;;9.44;86.43
64967;BME280;51710;38.732;-121.358;2022-12-05T08:14:46;101388.47;;;9.46;86.59
64967;BME280;51710;38.732;-121.358;2022-12-05T08:17:13;101380.34;;;9.47;86.48
64967;BME280;51710;38.732;-121.358;2022-12-05T08:19:39;101376.03;;;9.46;85.99
64967;BME280;51710;38.732;-121.358;2022-12-05T08:22:05;101377.84;;;9.46;85.96
64967;BME280;51710;38.732;-121.358;2022-12-05T08:24:32;101384.81;;;9.47;86.33
64967;BME280;51710;38.732;-121.358;2022-12-05T08:26:58;101387.09;;;9.51;86.35
64967;BME280;51710;38.732;-121.358;2022-12-05T08:29:25;101382.63;;;9.52;86.34
64967;BME280;51710;38.732;-121.358;2022-12-05T08:31:51;101378.97;;;9.53;86.36
64967;BME280;51710;38.732;-121.358;2022-12-05T08:34:18;101378.97;;;9.53;86.17
64967;BME280;51710;38.732;-121.358;2022-12-05T08:36:45;101367.50;;;9.52;86.57
64967;BME280;51710;38.732;-121.358;2022-12-05T08:39:13;101364.69;;;9.54;86.52
64967;BME280;51710;38.732;-121.358;2022-12-05T08:41:44;101365.56;;;9.54;86.44
64967;BME280;51710;38.732;-121.358;2022-12-05T08:44:12;101357.72;;;9.53;86.14
64967;BME280;51710;38.732;-121.358;2022-12-05T08:46:44;101358.56;;;9.53;85.91
64967;BME280;51710;38.732;-121.358;2022-12-05T08:49:12;101358.16;;;9.58;86.32
64967;BME280;51710;38.732;-121.358;2022-12-05T08:51:39;101349.91;;;9.61;86.01
64967;BME280;51710;38.732;-121.358;2022-12-05T08:54:07;101356.63;;;9.65;86.41
64967;BME280;51710;38.732;-121.358;2022-12-05T08:56:33;101355.53;;;9.67;86.13
64967;BME280;51710;38.732;-121.358;2022-12-05T08:59:00;101352.59;;;9.70;85.90
64967;BME280;51710;38.732;-121.358;2022-12-05T09:01:30;101349.78;;;9.72;85.85
64967;BME280;51710;38.732;-121.358;2022-12-05T09:03:58;101352.31;;;9.73;85.79
64967;BME280;51710;38.732;-121.358;2022-12-05T09:06:26;101349.66;;;9.73;85.73
64967;BME280;51710;38.732;-121.358;2022-12-05T09:08:55;101343.50;;;9.73;85.88
64967;BME280;51710;38.732;-121.358;2022-12-05T09:11:24;101334.56;;;9.74;86.04
64967;BME280;51710;38.732;-121.358;2022-12-05T09:13:53;101335.50;;;9.73;85.71
64967;BME280;51710;38.732;-121.358;2022-12-05T09:16:22;101328.81;;;9.69;85.52
64967;BME280;51710;38.732;-121.358;2022-12-05T09:18:49;101317.47;;;9.67;85.63
64967;BME280;51710;38.732;-121.358;2022-12-05T09:21:19;101317.47;;;9.67;85.85
64967;BME280;51710;38.732;-121.358;2022-12-05T09:23:46;101317.31;;;9.68;85.85
64967;BME280;51710;38.732;-121.358;2022-12-05T09:26:15;101318.88;;;9.71;85.65
64967;BME280;51710;38.732;-121.358;2022-12-05T09:28:42;101316.06;;;9.72;86.02
64967;BME280;51710;38.732;-121.358;2022-12-05T09:31:14;101316.88;;;9.73;85.72
64967;BME280;51710;38.732;-121.358;2022-12-05T09:33:41;101322.09;;;9.74;86.29
64967;BME280;51710;38.732;-121.358;2022-12-05T09:36:12;101321.97;;;9.76;85.77
64967;BME280;51710;38.732;-121.358;2022-12-05T09:38:39;101327.13;;;9.77;85.53
64967;BME280;51710;38.732;-121.358;2022-12-05T09:44:03;101323.34;;;9.80;85.50
64967;BME280;51710;38.732;-121.358;2022-12-05T09:49:10;101323.34;;;9.80;85.58
64967;BME280;51710;38.732;-121.358;2022-12-05T09:51:41;101324.06;;;9.82;85.58
64967;BME280;51710;38.732;-121.358;2022-12-05T09:54:10;101317.78;;;9.83;85.66
64967;BME280;51710;38.732;-121.358;2022-12-05T09:56:38;101315.13;;;9.83;85.63
64967;BME280;51710;38.732;-121.358;2022-12-05T09:59:11;101322.38;;;9.81;85.60
64967;BME280;51710;38.732;-121.358;2022-12-05T10:01:40;101314.41;;;9.81;85.90
64967;BME280;51710;38.732;-121.358;2022-12-05T10:07:49;101313.16;;;9.85;85.81
64967;BME280;51710;38.732;-121.358;2022-12-05T10:10:32;101313.41;;;9.82;85.26
64967;BME280;51710;38.732;-121.358;2022-12-05T10:13:24;101317.34;;;9.78;85.19
64967;BME280;51710;38.732;-121.358;2022-12-05T10:16:02;101320.41;;;9.73;85.30
64967;BME280;51710;38.732;-121.358;2022-12-05T10:21:04;101321.09;;;9.75;85.29
64967;BME280;51710;38.732;-121.358;2022-12-05T10:23:57;101320.97;;;9.77;85.15
64967;BME280;51710;38.732;-121.358;2022-12-05T10:26:50;101329.22;;;9.74;85.32
64967;BME280;51710;38.732;-121.358;2022-12-05T10:29:34;101322.50;;;9.70;84.87
64967;BME280;51710;38.732;-121.358;2022-12-05T10:34:40;101320.81;;;9.69;85.44
64967;BME280;51710;38.732;-121.358;2022-12-05T10:37:21;101322.78;;;9.67;85.37
64967;BME280;51710;38.732;-121.358;2022-12-05T10:39:49;101319.13;;;9.68;85.56
64967;BME280;51710;38.732;-121.358;2022-12-05T10:42:25;101316.06;;;9.72;85.66
64967;BME280;51710;38.732;-121.358;2022-12-05T10:45:00;101314.69;;;9.78;86.19
64967;BME280;51710;38.732;-121.358;2022-12-05T10:47:28;101325.03;;;9.81;86.13
64967;BME280;51710;38.732;-121.358;2022-12-05T10:50:02;101310.75;;;9.82;85.60
64967;BME280;51710;38.732;-121.358;2022-12-05T10:52:30;101312.16;;;9.86;85.95
64967;BME280;51710;38.732;-121.358;2022-12-05T10:55:03;101301.53;;;9.86;85.86
64967;BME280;51710;38.732;-121.358;2022-12-05T10:57:31;101308.25;;;9.90;85.61
64967;BME280;51710;38.732;-121.358;2022-12-05T11:00:11;101297.34;;;9.93;85.83
64967;BME280;51710;38.732;-121.358;2022-12-05T11:02:39;101288.09;;;9.97;86.21
64967;BME280;51710;38.732;-121.358;2022-12-05T11:05:07;101288.78;;;9.99;85.93
64967;BME280;51710;38.732;-121.358;2022-12-05T11:10:22;101289.22;;;10.04;85.76
64967;BME280;51710;38.732;-121.358;2022-12-05T11:12:50;101278.31;;;10.07;85.53
64967;BME280;51710;38.732;-121.358;2022-12-05T11:17:58;101270.75;;;10.12;85.46
64967;BME280;51710;38.732;-121.358;2022-12-05T11:20:42;101277.50;;;10.16;85.51
64967;BME280;51710;38.732;-121.358;2022-12-05T11:23:21;101272.88;;;10.18;85.60
64967;BME280;51710;38.732;-121.358;2022-12-05T11:25:48;101269.06;;;10.20;85.37
64967;BME280;51710;38.732;-121.358;2022-12-05T11:33:35;101261.09;;;10.30;85.17
64967;BME280;51710;38.732;-121.358;2022-12-05T11:38:34;101250.84;;;10.35;85.13
64967;BME280;51710;38.732;-121.358;2022-12-05T11:46:37;101240.31;;;10.43;84.75
64967;BME280;51710;38.732;-121.358;2022-12-05T11:54:44;101224.47;;;10.51;84.11
64967;BME280;51710;38.732;-121.358;2022-12-05T11:57:48;101235.94;;;10.52;84.30
64967;BME280;51710;38.732;-121.358;2022-12-05T12:00:22;101236.66;;;10.54;84.58
64967;BME280;51710;38.732;-121.358;2022-12-05T12:13:46;101225.00;;;10.64;83.32
64967;BME280;51710;38.732;-121.358;2022-12-05T12:33:22;101227.88;;;10.80;82.42
64967;BME280;51710;38.732;-121.358;2022-12-05T12:41:25;101222.09;;;10.85;82.70
64967;BME280;51710;38.732;-121.358;2022-12-05T12:47:00;101231.50;;;10.89;82.58
64967;BME280;51710;38.732;-121.358;2022-12-05T12:52:27;101227.69;;;10.91;82.32
64967;BME280;51710;38.732;-121.358;2022-12-05T12:55:06;101224.88;;;10.93;81.89
64967;BME280;51710;38.732;-121.358;2022-12-05T13:00:50;101239.72;;;10.95;82.20
64967;BME280;51710;38.732;-121.358;2022-12-05T13:03:23;101246.88;;;10.95;82.06
64967;BME280;51710;38.732;-121.358;2022-12-05T13:05:57;101236.91;;;10.97;82.09
64967;BME280;51710;38.732;-121.358;2022-12-05T13:08:46;101234.41;;;10.95;81.88
64967;BME280;51710;38.732;-121.358;2022-12-05T13:11:16;101237.06;;;10.95;82.05
64967;BME280;51710;38.732;-121.358;2022-12-05T13:13:56;101231.03;;;10.93;81.39
64967;BME280;51710;38.732;-121.358;2022-12-05T13:16:37;101229.53;;;10.91;82.12
64967;BME280;51710;38.732;-121.358;2022-12-05T13:19:06;101218.31;;;10.87;81.75
64967;BME280;51710;38.732;-121.358;2022-12-05T13:21:37;101221.41;;;10.83;81.65
64967;BME280;51710;38.732;-121.358;2022-12-05T13:24:04;101229.69;;;10.80;82.26
64967;BME280;51710;38.732;-121.358;2022-12-05T13:26:32;101238.94;;;10.76;82.30
64967;BME280;51710;38.732;-121.358;2022-12-05T13:29:03;101242.22;;;10.70;82.40
64967;BME280;51710;38.732;-121.358;2022-12-05T13:31:44;101241.81;;;10.65;82.29
64967;BME280;51710;38.732;-121.358;2022-12-05T13:37:18;101248.31;;;10.53;82.71
64967;BME280;51710;38.732;-121.358;2022-12-05T13:40:04;101240.47;;;10.51;82.96
64967;BME280;51710;38.732;-121.358;2022-12-05T13:43:12;101244.09;;;10.50;83.11
64967;BME280;51710;38.732;-121.358;2022-12-05T13:45:42;101252.63;;;10.54;83.02
64967;BME280;51710;38.732;-121.358;2022-12-05T13:48:22;101245.19;;;10.57;83.53
64967;BME280;51710;38.732;-121.358;2022-12-05T13:50:57;101250.38;;;10.59;83.50
64967;BME280;51710;38.732;-121.358;2022-12-05T13:53:38;101249.25;;;10.61;83.35
64967;BME280;51710;38.732;-121.358;2022-12-05T13:56:24;101251.09;;;10.51;83.16
64967;BME280;51710;38.732;-121.358;2022-12-05T13:58:56;101262.47;;;10.34;84.13
64967;BME280;51710;38.732;-121.358;2022-12-05T14:04:17;101279.56;;;10.03;85.30
64967;BME280;51710;38.732;-121.358;2022-12-05T14:15:33;101306.84;;;9.86;86.20
64967;BME280;51710;38.732;-121.358;2022-12-05T14:18:12;101283.34;;;9.81;86.25
64967;BME280;51710;38.732;-121.358;2022-12-05T14:20:47;101293.28;;;9.79;87.13
64967;BME280;51710;38.732;-121.358;2022-12-05T14:23:25;101302.78;;;9.82;86.68
64967;BME280;51710;38.732;-121.358;2022-12-05T14:29:35;101317.16;;;9.70;86.99
64967;BME280;51710;38.732;-121.358;2022-12-05T14:40:34;101312.44;;;9.92;87.70
64967;BME280;51710;38.732;-121.358;2022-12-05T14:43:07;101319.19;;;9.96;88.29
64967;BME280;51710;38.732;-121.358;2022-12-05T14:46:06;101315.84;;;10.04;87.81
64967;BME280;51710;38.732;-121.358;2022-12-05T14:48:52;101322.31;;;10.11;87.72
64967;BME280;51710;38.732;-121.358;2022-12-05T14:54:10;101308.72;;;10.14;86.99
64967;BME280;51710;38.732;-121.358;2022-12-05T14:57:03;101304.81;;;10.18;87.54
64967;BME280;51710;38.732;-121.358;2022-12-05T14:59:55;101302.72;;;10.22;87.76
64967;BME280;51710;38.732;-121.358;2022-12-05T15:02:29;101307.19;;;10.21;87.55
64967;BME280;51710;38.732;-121.358;2022-12-05T15:05:02;101311.09;;;10.17;87.51
64967;BME280;51710;38.732;-121.358;2022-12-05T15:07:36;101315.47;;;10.18;87.58
64967;BME280;51710;38.732;-121.358;2022-12-05T15:18:30;101320.91;;;10.16;87.72